sensor_id;sensor_type;location;lat;lon;timestamp;pressure;altitude;pressure_sealevel;temperature;humidity
43691;BME280;29293;52.190;21.226;2023-05-22T00:06:34;100841.05;;;10.08;100.00
43691;BME280;29293;52.190;21.226;2023-05-22T00:21:41;100836.31;;;9.87;100.00
43691;BME280;29293;52.190;21.226;2023-05-22T03:06:34;100816.95;;;9.60;100.00
43691;BME280;29293;52.190;21.226;2023-05-22T03:21:42;100804.48;;;9.07;100.00
43691;BME280;29293;52.190;21.226;2023-05-22T03:36:49;100800.63;;;9.01;100.00
43691;BME280;29293;52.190;21.226;2023-05-22T03:51:56;100805.02;;;9.18;100.00
43691;BME280;29293;52.190;21.226;2023-05-22T04:07:05;100803.33;;;9.50;100.00
43691;BME280;29293;52.190;21.226;2023-05-22T04:22:13;100801.39;;;10.00;100.00
43691;BME280;29293;52.190;21.226;2023-05-22T04:37:20;100797.67;;;10.58;100.00
43691;BME280;29293;52.190;21.226;2023-05-22T04:52:31;100785.08;;;11.27;100.00
43691;BME280;29293;52.190;21.226;2023-05-22T05:07:43;100773.01;;;11.98;100.00
43691;BME280;29293;52.190;21.226;2023-05-22T05:22:50;100779.63;;;12.68;100.00
43691;BME280;29293;52.190;21.226;2023-05-22T05:38:00;100786.92;;;13.34;100.00
43691;BME280;29293;52.190;21.226;2023-05-22T05:53:08;100783.45;;;14.13;100.00
43691;BME280;29293;52.190;21.226;2023-05-22T06:08:15;100781.08;;;14.97;100.00
43691;BME280;29293;52.190;21.226;2023-05-22T06:23:24;100781.23;;;15.75;100.00
43691;BME280;29293;52.190;21.226;2023-05-22T07:36:27;100751.93;;;21.02;65.36
43691;BME280;29293;52.190;21.226;2023-05-22T07:51:34;100742.08;;;21.28;57.91
43691;BME280;29293;52.190;21.226;2023-05-22T08:06:41;100734.36;;;21.57;53.85
43691;BME280;29293;52.190;21.226;2023-05-22T08:21:49;100726.11;;;21.88;47.62
43691;BME280;29293;52.190;21.226;2023-05-22T08:52:46;100720.93;;;21.94;43.50
43691;BME280;29293;52.190;21.226;2023-05-22T09:08:04;100718.85;;;21.61;44.07
43691;BME280;29293;52.190;21.226;2023-05-22T09:23:14;100706.42;;;22.36;41.90
43691;BME280;29293;52.190;21.226;2023-05-22T09:42:15;100699.77;;;22.23;40.33
43691;BME280;29293;52.190;21.226;2023-05-22T09:57:35;100685.66;;;21.60;41.77
43691;BME280;29293;52.190;21.226;2023-05-22T10:12:51;100679.27;;;21.82;41.48
43691;BME280;29293;52.190;21.226;2023-05-22T10:28:01;100670.23;;;21.67;40.93
43691;BME280;29293;52.190;21.226;2023-05-22T10:43:08;100673.25;;;21.15;41.84
43691;BME280;29293;52.190;21.226;2023-05-22T10:58:47;100667.23;;;21.10;43.46
43691;BME280;29293;52.190;21.226;2023-05-22T11:49:15;100621.17;;;22.94;40.35
43691;BME280;29293;52.190;21.226;2023-05-22T12:04:42;100613.52;;;23.47;38.30
43691;BME280;29293;52.190;21.226;2023-05-22T12:19:49;100606.69;;;23.26;38.31
43691;BME280;29293;52.190;21.226;2023-05-22T12:34:58;100592.91;;;23.60;38.99
43691;BME280;29293;52.190;21.226;2023-05-22T12:50:07;100577.96;;;23.44;38.55
43691;BME280;29293;52.190;21.226;2023-05-22T13:05:17;100572.11;;;23.22;38.09
43691;BME280;29293;52.190;21.226;2023-05-22T13:20:24;100566.66;;;22.80;40.00
43691;BME280;29293;52.190;21.226;2023-05-22T13:35:31;100557.02;;;23.22;37.69
43691;BME280;29293;52.190;21.226;2023-05-22T13:50:38;100550.09;;;23.52;36.95
43691;BME280;29293;52.190;21.226;2023-05-22T14:05:45;100536.66;;;23.49;37.00
43691;BME280;29293;52.190;21.226;2023-05-22T14:44:34;100509.83;;;23.53;36.83
43691;BME280;29293;52.190;21.226;2023-05-22T14:59:41;100499.70;;;23.36;36.35
43691;BME280;29293;52.190;21.226;2023-05-22T15:30:40;100489.98;;;22.26;38.70
43691;BME280;29293;52.190;21.226;2023-05-22T15:45:53;100477.83;;;21.85;38.70
43691;BME280;29293;52.190;21.226;2023-05-22T16:01:00;100466.28;;;21.49;39.25
43691;BME280;29293;52.190;21.226;2023-05-22T16:16:07;100455.27;;;21.14;39.93
43691;BME280;29293;52.190;21.226;2023-05-22T16:31:17;100447.80;;;20.79;40.68
43691;BME280;29293;52.190;21.226;2023-05-22T17:01:32;100441.24;;;20.28;42.19
43691;BME280;29293;52.190;21.226;2023-05-22T17:52:22;100452.04;;;19.99;44.36
43691;BME280;29293;52.190;21.226;2023-05-22T18:07:32;100442.98;;;18.95;48.33
43691;BME280;29293;52.190;21.226;2023-05-22T18:22:39;100440.91;;;17.92;51.77
43691;BME280;29293;52.190;21.226;2023-05-22T18:37:46;100436.63;;;16.98;55.46
43691;BME280;29293;52.190;21.226;2023-05-22T18:53:04;100442.53;;;16.05;59.42
43691;BME280;29293;52.190;21.226;2023-05-22T19:08:10;100450.18;;;15.24;65.16
43691;BME280;29293;52.190;21.226;2023-05-22T19:23:18;100456.80;;;14.47;70.93
43691;BME280;29293;52.190;21.226;2023-05-22T19:58:22;100453.64;;;13.70;83.31
43691;BME280;29293;52.190;21.226;2023-05-22T20:13:31;100455.59;;;12.89;97.27
43691;BME280;29293;52.190;21.226;2023-05-22T20:28:37;100452.01;;;12.45;100.00
43691;BME280;29293;52.190;21.226;2023-05-22T20:43:46;100439.34;;;12.08;100.00
43691;BME280;29293;52.190;21.226;2023-05-22T20:58:53;100441.33;;;11.80;100.00
43691;BME280;29293;52.190;21.226;2023-05-22T21:14:00;100437.33;;;11.60;100.00
43691;BME280;29293;52.190;21.226;2023-05-22T21:29:07;100433.14;;;11.39;100.00
43691;BME280;29293;52.190;21.226;2023-05-22T21:44:14;100426.42;;;11.21;100.00
43691;BME280;29293;52.190;21.226;2023-05-22T21:59:21;100424.59;;;11.10;100.00
43691;BME280;29293;52.190;21.226;2023-05-22T22:14:28;100424.24;;;10.93;100.00
43691;BME280;29293;52.190;21.226;2023-05-22T22:29:35;100417.23;;;10.77;100.00
